sensor_id;sensor_type;location;lat;lon;timestamp;pressure;altitude;pressure_sealevel;temperature;humidity
10988;BME280;5547;42.672;23.230;2023-03-04T00:01:12;93354.31;;;2.30;100.00
10988;BME280;5547;42.672;23.230;2023-03-04T00:04:13;93318.31;;;2.07;100.00
10988;BME280;5547;42.672;23.230;2023-03-04T00:07:13;93351.06;;;2.37;100.00
10988;BME280;5547;42.672;23.230;2023-03-04T00:10:16;93353.25;;;2.35;100.00
10988;BME280;5547;42.672;23.230;2023-03-04T00:13:16;93349.19;;;2.37;100.00
10988;BME280;5547;42.672;23.230;2023-03-04T00:16:19;93331.19;;;2.62;100.00
10988;BME280;5547;42.672;23.230;2023-03-04T00:19:19;93348.06;;;2.61;100.00
10988;BME280;5547;42.672;23.230;2023-03-04T00:22:20;93338.94;;;2.78;100.00
10988;BME280;5547;42.672;23.230;2023-03-04T00:25:20;93342.91;;;2.68;100.00
10988;BME280;5547;42.672;23.230;2023-03-04T00:28:21;93339.91;;;2.43;100.00
10988;BME280;5547;42.672;23.230;2023-03-04T00:31:21;93341.31;;;2.37;100.00
10988;BME280;5547;42.672;23.230;2023-03-04T00:34:22;93330.16;;;2.21;100.00
10988;BME280;5547;42.672;23.230;2023-03-04T00:37:22;93324.09;;;2.17;100.00
10988;BME280;5547;42.672;23.230;2023-03-04T00:40:22;93298.06;;;2.04;100.00
10988;BME280;5547;42.672;23.230;2023-03-04T00:43:23;93338.56;;;2.30;100.00
10988;BME280;5547;42.672;23.230;2023-03-04T00:46:23;93322.22;;;2.17;100.00
10988;BME280;5547;42.672;23.230;2023-03-04T00:49:24;93322.53;;;2.12;100.00
10988;BME280;5547;42.672;23.230;2023-03-04T00:52:25;93313.50;;;2.09;100.00
10988;BME280;5547;42.672;23.230;2023-03-04T00:55:25;93326.44;;;2.22;100.00
10988;BME280;5547;42.672;23.230;2023-03-04T00:58:26;93338.22;;;2.31;100.00
10988;BME280;5547;42.672;23.230;2023-03-04T01:01:26;93272.00;;;1.92;100.00
10988;BME280;5547;42.672;23.230;2023-03-04T01:04:26;93292.47;;;2.06;100.00
10988;BME280;5547;42.672;23.230;2023-03-04T01:07:27;93319.75;;;2.24;100.00
10988;BME280;5547;42.672;23.230;2023-03-04T01:10:27;93320.78;;;2.20;100.00
10988;BME280;5547;42.672;23.230;2023-03-04T01:13:28;93328.38;;;2.25;100.00
10988;BME280;5547;42.672;23.230;2023-03-04T01:16:28;93273.06;;;1.87;100.00
10988;BME280;5547;42.672;23.230;2023-03-04T01:19:29;93283.34;;;2.00;100.00
10988;BME280;5547;42.672;23.230;2023-03-04T01:22:29;93323.47;;;2.23;100.00
10988;BME280;5547;42.672;23.230;2023-03-04T01:25:29;93308.31;;;2.13;100.00
10988;BME280;5547;42.672;23.230;2023-03-04T01:28:30;93319.75;;;2.24;100.00
10988;BME280;5547;42.672;23.230;2023-03-04T01:31:34;93313.97;;;2.15;100.00
10988;BME280;5547;42.672;23.230;2023-03-04T01:34:35;93307.50;;;2.09;100.00
10988;BME280;5547;42.672;23.230;2023-03-04T01:37:35;93307.09;;;2.07;100.00
10988;BME280;5547;42.672;23.230;2023-03-04T01:40:36;93283.06;;;1.82;100.00
10988;BME280;5547;42.672;23.230;2023-03-04T01:43:37;93306.50;;;1.94;100.00
10988;BME280;5547;42.672;23.230;2023-03-04T01:46:41;93275.47;;;1.77;100.00
10988;BME280;5547;42.672;23.230;2023-03-04T01:49:45;93300.25;;;1.79;100.00
10988;BME280;5547;42.672;23.230;2023-03-04T01:52:47;93252.78;;;1.42;100.00
10988;BME280;5547;42.672;23.230;2023-03-04T01:55:48;93289.03;;;1.59;100.00
10988;BME280;5547;42.672;23.230;2023-03-04T01:59:11;93286.13;;;1.64;100.00
10988;BME280;5547;42.672;23.230;2023-03-04T02:02:13;93286.47;;;1.63;100.00
10988;BME280;5547;42.672;23.230;2023-03-04T02:05:14;93256.03;;;1.35;100.00
10988;BME280;5547;42.672;23.230;2023-03-04T02:08:17;93287.94;;;1.60;100.00
10988;BME280;5547;42.672;23.230;2023-03-04T02:11:18;93272.50;;;1.55;100.00
10988;BME280;5547;42.672;23.230;2023-03-04T02:14:19;93286.56;;;1.66;100.00
10988;BME280;5547;42.672;23.230;2023-03-04T02:17:27;93281.31;;;1.66;100.00
10988;BME280;5547;42.672;23.230;2023-03-04T02:20:43;93276.06;;;1.66;100.00
10988;BME280;5547;42.672;23.230;2023-03-04T02:27:01;93275.34;;;1.70;100.00
10988;BME280;5547;42.672;23.230;2023-03-04T02:30:01;93271.44;;;1.60;100.00
10988;BME280;5547;42.672;23.230;2023-03-04T02:33:02;93234.09;;;1.43;100.00
10988;BME280;5547;42.672;23.230;2023-03-04T02:36:02;93272.19;;;1.60;100.00
10988;BME280;5547;42.672;23.230;2023-03-04T02:39:20;93183.53;;;1.00;100.00
10988;BME280;5547;42.672;23.230;2023-03-04T02:42:21;93266.13;;;1.56;100.00
10988;BME280;5547;42.672;23.230;2023-03-04T02:45:35;93170.25;;;0.90;100.00
10988;BME280;5547;42.672;23.230;2023-03-04T02:48:35;93254.09;;;1.32;100.00
10988;BME280;5547;42.672;23.230;2023-03-04T02:51:36;93258.09;;;1.26;100.00
10988;BME280;5547;42.672;23.230;2023-03-04T02:54:36;93258.72;;;1.19;100.00
10988;BME280;5547;42.672;23.230;2023-03-04T02:57:37;93260.66;;;1.03;100.00
10988;BME280;5547;42.672;23.230;2023-03-04T03:00:38;93229.50;;;0.78;100.00
10988;BME280;5547;42.672;23.230;2023-03-04T03:03:39;93267.97;;;0.94;100.00
10988;BME280;5547;42.672;23.230;2023-03-04T03:06:39;93214.63;;;0.63;100.00
10988;BME280;5547;42.672;23.230;2023-03-04T03:09:40;93265.34;;;0.94;100.00
10988;BME280;5547;42.672;23.230;2023-03-04T03:12:40;93267.13;;;0.90;100.00
10988;BME280;5547;42.672;23.230;2023-03-04T03:15:41;93262.84;;;0.81;100.00
10988;BME280;5547;42.672;23.230;2023-03-04T03:18:41;93210.78;;;0.41;100.00
10988;BME280;5547;42.672;23.230;2023-03-04T03:21:41;93264.56;;;0.74;100.00
10988;BME280;5547;42.672;23.230;2023-03-04T03:24:42;93254.22;;;0.61;100.00
10988;BME280;5547;42.672;23.230;2023-03-04T03:27:43;93225.50;;;0.30;100.00
10988;BME280;5547;42.672;23.230;2023-03-04T03:30:43;93252.31;;;0.43;100.00
10988;BME280;5547;42.672;23.230;2023-03-04T03:33:44;93251.28;;;0.47;100.00
10988;BME280;5547;42.672;23.230;2023-03-04T03:36:44;93254.19;;;0.42;100.00
10988;BME280;5547;42.672;23.230;2023-03-04T03:39:44;93207.75;;;0.04;100.00
10988;BME280;5547;42.672;23.230;2023-03-04T03:42:45;93241.03;;;0.23;100.00
10988;BME280;5547;42.672;23.230;2023-03-04T03:45:45;93249.25;;;0.21;100.00
10988;BME280;5547;42.672;23.230;2023-03-04T03:48:45;93239.06;;;0.00;100.00
10988;BME280;5547;42.672;23.230;2023-03-04T03:51:46;93247.91;;;-0.05;100.00
10988;BME280;5547;42.672;23.230;2023-03-04T03:54:46;93245.63;;;-0.22;100.00
10988;BME280;5547;42.672;23.230;2023-03-04T03:57:47;93250.84;;;-0.38;100.00
10988;BME280;5547;42.672;23.230;2023-03-04T04:00:47;93244.53;;;-0.37;100.00
10988;BME280;5547;42.672;23.230;2023-03-04T04:03:48;93209.16;;;-0.63;100.00
10988;BME280;5547;42.672;23.230;2023-03-04T04:06:48;93239.78;;;-0.47;100.00
10988;BME280;5547;42.672;23.230;2023-03-04T04:09:49;93232.59;;;-0.66;100.00
10988;BME280;5547;42.672;23.230;2023-03-04T04:12:49;93230.47;;;-0.76;100.00
10988;BME280;5547;42.672;23.230;2023-03-04T04:15:53;93226.28;;;-0.65;100.00
10988;BME280;5547;42.672;23.230;2023-03-04T04:18:53;93225.69;;;-0.58;100.00
10988;BME280;5547;42.672;23.230;2023-03-04T04:21:53;93217.06;;;-0.75;100.00
10988;BME280;5547;42.672;23.230;2023-03-04T04:24:54;93228.06;;;-0.69;100.00
10988;BME280;5547;42.672;23.230;2023-03-04T04:27:54;93177.22;;;-1.16;100.00
10988;BME280;5547;42.672;23.230;2023-03-04T04:30:54;93236.78;;;-0.77;100.00
10988;BME280;5547;42.672;23.230;2023-03-04T04:33:55;93235.13;;;-0.70;100.00
10988;BME280;5547;42.672;23.230;2023-03-04T04:36:55;93233.84;;;-0.76;100.00
10988;BME280;5547;42.672;23.230;2023-03-04T04:39:56;93235.28;;;-0.78;100.00
10988;BME280;5547;42.672;23.230;2023-03-04T04:42:56;93224.41;;;-0.80;100.00
10988;BME280;5547;42.672;23.230;2023-03-04T04:45:58;93230.25;;;-0.71;100.00
10988;BME280;5547;42.672;23.230;2023-03-04T04:48:58;93185.09;;;-1.00;100.00
10988;BME280;5547;42.672;23.230;2023-03-04T04:51:59;93184.03;;;-0.99;100.00
10988;BME280;5547;42.672;23.230;2023-03-04T04:54:59;93185.41;;;-1.17;100.00
10988;BME280;5547;42.672;23.230;2023-03-04T04:58:00;93213.78;;;-1.16;100.00
10988;BME280;5547;42.672;23.230;2023-03-04T05:01:01;93202.94;;;-1.02;100.00
10988;BME280;5547;42.672;23.230;2023-03-04T05:04:02;93240.00;;;-0.68;100.00
10988;BME280;5547;42.672;23.230;2023-03-04T05:07:03;93234.94;;;-0.77;100.00
10988;BME280;5547;42.672;23.230;2023-03-04T05:10:03;93251.56;;;-0.69;100.00
10988;BME280;5547;42.672;23.230;2023-03-04T05:13:06;93232.84;;;-0.71;100.00
10988;BME280;5547;42.672;23.230;2023-03-04T05:16:09;93253.34;;;-0.57;100.00
10988;BME280;5547;42.672;23.230;2023-03-04T05:19:10;93245.84;;;-0.59;100.00
10988;BME280;5547;42.672;23.230;2023-03-04T05:22:10;93254.19;;;-0.53;100.00
10988;BME280;5547;42.672;23.230;2023-03-04T05:25:11;93204.94;;;-0.83;100.00
10988;BME280;5547;42.672;23.230;2023-03-04T05:28:12;93264.00;;;-0.34;100.00
10988;BME280;5547;42.672;23.230;2023-03-04T05:31:12;93157.16;;;-0.83;100.00
10988;BME280;5547;42.672;23.230;2023-03-04T05:34:12;93148.16;;;-0.86;100.00
10988;BME280;5547;42.672;23.230;2023-03-04T05:37:13;93268.22;;;0.18;100.00
10988;BME280;5547;42.672;23.230;2023-03-04T05:40:13;93266.16;;;0.43;100.00
10988;BME280;5547;42.672;23.230;2023-03-04T05:43:14;93200.63;;;0.20;100.00
10988;BME280;5547;42.672;23.230;2023-03-04T05:46:16;93275.59;;;0.83;100.00
10988;BME280;5547;42.672;23.230;2023-03-04T05:49:18;93278.72;;;1.08;100.00
10988;BME280;5547;42.672;23.230;2023-03-04T05:52:18;93284.72;;;1.28;100.00
10988;BME280;5547;42.672;23.230;2023-03-04T05:55:19;93247.69;;;1.30;100.00
10988;BME280;5547;42.672;23.230;2023-03-04T05:58:20;93224.88;;;1.30;100.00
10988;BME280;5547;42.672;23.230;2023-03-04T06:01:20;93282.88;;;1.71;100.00
10988;BME280;5547;42.672;23.230;2023-03-04T06:04:21;93282.41;;;1.88;100.00
10988;BME280;5547;42.672;23.230;2023-03-04T06:07:21;93289.44;;;2.04;100.00
10988;BME280;5547;42.672;23.230;2023-03-04T06:10:22;93283.25;;;2.16;100.00
10988;BME280;5547;42.672;23.230;2023-03-04T06:13:22;93288.69;;;2.30;100.00
10988;BME280;5547;42.672;23.230;2023-03-04T06:16:23;93283.53;;;2.60;100.00
10988;BME280;5547;42.672;23.230;2023-03-04T06:19:23;93304.75;;;2.51;100.00
10988;BME280;5547;42.672;23.230;2023-03-04T06:22:23;93306.31;;;2.52;100.00
10988;BME280;5547;42.672;23.230;2023-03-04T06:25:24;93303.69;;;2.52;100.00
10988;BME280;5547;42.672;23.230;2023-03-04T06:28:25;93295.38;;;2.50;100.00
10988;BME280;5547;42.672;23.230;2023-03-04T06:31:25;93282.97;;;2.74;100.00
10988;BME280;5547;42.672;23.230;2023-03-04T06:34:26;93304.97;;;2.92;100.00
10988;BME280;5547;42.672;23.230;2023-03-04T06:37:27;93292.41;;;3.09;100.00
10988;BME280;5547;42.672;23.230;2023-03-04T06:40:28;93315.13;;;3.58;100.00
10988;BME280;5547;42.672;23.230;2023-03-04T06:43:28;93313.88;;;3.45;100.00
10988;BME280;5547;42.672;23.230;2023-03-04T06:46:28;93313.09;;;3.41;100.00
10988;BME280;5547;42.672;23.230;2023-03-04T06:49:29;93310.16;;;3.15;100.00
10988;BME280;5547;42.672;23.230;2023-03-04T06:52:29;93319.75;;;3.34;100.00
10988;BME280;5547;42.672;23.230;2023-03-04T06:55:30;93315.84;;;3.21;100.00
10988;BME280;5547;42.672;23.230;2023-03-04T06:58:30;93319.69;;;3.27;100.00
10988;BME280;5547;42.672;23.230;2023-03-04T07:01:31;93310.13;;;3.46;100.00
10988;BME280;5547;42.672;23.230;2023-03-04T07:04:31;93296.84;;;3.35;100.00
10988;BME280;5547;42.672;23.230;2023-03-04T07:07:32;93300.53;;;2.97;100.00
10988;BME280;5547;42.672;23.230;2023-03-04T07:10:33;93319.19;;;3.18;100.00
10988;BME280;5547;42.672;23.230;2023-03-04T07:13:34;93283.84;;;3.12;100.00
10988;BME280;5547;42.672;23.230;2023-03-04T07:16:37;93323.84;;;3.28;100.00
10988;BME280;5547;42.672;23.230;2023-03-04T07:19:37;93318.25;;;3.03;100.00
10988;BME280;5547;42.672;23.230;2023-03-04T07:22:38;93214.94;;;2.65;100.00
10988;BME280;5547;42.672;23.230;2023-03-04T07:25:38;93298.47;;;3.13;100.00
10988;BME280;5547;42.672;23.230;2023-03-04T07:28:39;93332.97;;;3.42;100.00
10988;BME280;5547;42.672;23.230;2023-03-04T07:31:41;93327.88;;;3.22;100.00
10988;BME280;5547;42.672;23.230;2023-03-04T07:34:42;93313.50;;;3.46;100.00
10988;BME280;5547;42.672;23.230;2023-03-04T07:37:42;93283.09;;;3.49;100.00
10988;BME280;5547;42.672;23.230;2023-03-04T07:40:42;93326.34;;;3.85;100.00
10988;BME280;5547;42.672;23.230;2023-03-04T07:43:43;93237.00;;;3.21;100.00
10988;BME280;5547;42.672;23.230;2023-03-04T07:46:44;93321.81;;;3.82;100.00
10988;BME280;5547;42.672;23.230;2023-03-04T07:49:44;93317.41;;;3.97;100.00
10988;BME280;5547;42.672;23.230;2023-03-04T07:52:46;93328.91;;;4.19;100.00
10988;BME280;5547;42.672;23.230;2023-03-04T07:55:47;93291.03;;;3.86;100.00
10988;BME280;5547;42.672;23.230;2023-03-04T07:58:48;93311.53;;;3.70;100.00
10988;BME280;5547;42.672;23.230;2023-03-04T08:01:49;93314.38;;;3.91;100.00
10988;BME280;5547;42.672;23.230;2023-03-04T08:04:49;93319.06;;;4.12;100.00
10988;BME280;5547;42.672;23.230;2023-03-04T08:07:49;93313.06;;;4.12;100.00
10988;BME280;5547;42.672;23.230;2023-03-04T08:10:50;93318.41;;;4.22;100.00
10988;BME280;5547;42.672;23.230;2023-03-04T08:13:50;93296.84;;;3.69;100.00
10988;BME280;5547;42.672;23.230;2023-03-04T08:16:53;93330.03;;;3.81;100.00
10988;BME280;5547;42.672;23.230;2023-03-04T08:19:53;93314.31;;;3.88;100.00
10988;BME280;5547;42.672;23.230;2023-03-04T08:22:54;93318.03;;;3.83;100.00
10988;BME280;5547;42.672;23.230;2023-03-04T08:25:54;93312.69;;;4.13;100.00
10988;BME280;5547;42.672;23.230;2023-03-04T08:28:55;93314.88;;;4.49;100.00
10988;BME280;5547;42.672;23.230;2023-03-04T08:31:56;93307.84;;;4.19;100.00
10988;BME280;5547;42.672;23.230;2023-03-04T08:34:57;93315.75;;;4.19;100.00
10988;BME280;5547;42.672;23.230;2023-03-04T08:37:57;93311.63;;;4.21;100.00
10988;BME280;5547;42.672;23.230;2023-03-04T08:40:57;93311.47;;;4.48;100.00
10988;BME280;5547;42.672;23.230;2023-03-04T08:43:58;93212.50;;;3.47;100.00
10988;BME280;5547;42.672;23.230;2023-03-04T08:46:59;93312.66;;;5.17;98.97
10988;BME280;5547;42.672;23.230;2023-03-04T08:49:59;93315.50;;;4.83;100.00
10988;BME280;5547;42.672;23.230;2023-03-04T08:53:00;93312.06;;;5.56;97.01
10988;BME280;5547;42.672;23.230;2023-03-04T08:56:00;93282.25;;;5.44;97.61
10988;BME280;5547;42.672;23.230;2023-03-04T08:59:00;93296.72;;;5.90;93.53
10988;BME280;5547;42.672;23.230;2023-03-04T09:02:01;93271.81;;;5.80;94.39
10988;BME280;5547;42.672;23.230;2023-03-04T09:05:01;93318.69;;;6.77;88.24
10988;BME280;5547;42.672;23.230;2023-03-04T09:08:02;93300.53;;;6.07;91.20
10988;BME280;5547;42.672;23.230;2023-03-04T09:11:02;93291.50;;;6.44;92.67
10988;BME280;5547;42.672;23.230;2023-03-04T09:14:03;93259.06;;;6.15;89.41
10988;BME280;5547;42.672;23.230;2023-03-04T09:17:04;93294.84;;;7.05;87.80
10988;BME280;5547;42.672;23.230;2023-03-04T09:20:05;93296.38;;;6.81;87.08
10988;BME280;5547;42.672;23.230;2023-03-04T09:23:07;93297.53;;;6.80;87.54
10988;BME280;5547;42.672;23.230;2023-03-04T09:26:28;93285.47;;;6.68;89.83
10988;BME280;5547;42.672;23.230;2023-03-04T09:29:29;93287.38;;;6.28;90.09
10988;BME280;5547;42.672;23.230;2023-03-04T09:32:29;93285.47;;;6.36;90.89
10988;BME280;5547;42.672;23.230;2023-03-04T09:35:29;93293.38;;;6.47;86.70
10988;BME280;5547;42.672;23.230;2023-03-04T09:38:30;93234.84;;;5.73;88.19
10988;BME280;5547;42.672;23.230;2023-03-04T09:41:40;93254.47;;;5.79;90.48
10988;BME280;5547;42.672;23.230;2023-03-04T09:44:42;93250.75;;;6.02;92.96
10988;BME280;5547;42.672;23.230;2023-03-04T09:47:46;93271.88;;;6.38;93.64
10988;BME280;5547;42.672;23.230;2023-03-04T09:51:00;93277.16;;;6.38;91.10
10988;BME280;5547;42.672;23.230;2023-03-04T09:54:31;93232.56;;;6.86;85.88
10988;BME280;5547;42.672;23.230;2023-03-04T10:00:55;93230.34;;;6.60;86.87
10988;BME280;5547;42.672;23.230;2023-03-04T10:04:13;93268.88;;;6.57;88.76
10988;BME280;5547;42.672;23.230;2023-03-04T10:07:23;93179.81;;;5.57;89.47
10988;BME280;5547;42.672;23.230;2023-03-04T10:10:35;93256.75;;;6.78;87.40
10988;BME280;5547;42.672;23.230;2023-03-04T10:13:46;93255.88;;;7.24;84.44
10988;BME280;5547;42.672;23.230;2023-03-04T10:16:57;93247.34;;;6.66;88.00
10988;BME280;5547;42.672;23.230;2023-03-04T10:20:21;93244.69;;;6.69;87.87
10988;BME280;5547;42.672;23.230;2023-03-04T10:23:28;93237.53;;;6.66;88.48
10988;BME280;5547;42.672;23.230;2023-03-04T10:26:30;93248.44;;;6.86;87.98
10988;BME280;5547;42.672;23.230;2023-03-04T10:29:32;93221.31;;;6.50;88.23
10988;BME280;5547;42.672;23.230;2023-03-04T10:32:33;93235.28;;;6.11;90.82
10988;BME280;5547;42.672;23.230;2023-03-04T10:35:34;93237.53;;;6.38;90.32
10988;BME280;5547;42.672;23.230;2023-03-04T10:38:39;93226.19;;;6.73;87.41
10988;BME280;5547;42.672;23.230;2023-03-04T10:41:43;93226.78;;;7.24;85.24
10988;BME280;5547;42.672;23.230;2023-03-04T10:44:51;93217.88;;;6.60;91.56
10988;BME280;5547;42.672;23.230;2023-03-04T10:47:53;93207.13;;;7.25;85.62
10988;BME280;5547;42.672;23.230;2023-03-04T10:51:11;93213.66;;;6.99;87.22
10988;BME280;5547;42.672;23.230;2023-03-04T10:57:48;93188.88;;;6.35;90.65
10988;BME280;5547;42.672;23.230;2023-03-04T11:01:12;93198.69;;;5.95;93.86
10988;BME280;5547;42.672;23.230;2023-03-04T11:04:19;93165.50;;;6.08;92.13
10988;BME280;5547;42.672;23.230;2023-03-04T11:07:26;93174.56;;;5.97;93.77
10988;BME280;5547;42.672;23.230;2023-03-04T11:13:49;93169.22;;;5.61;96.69
10988;BME280;5547;42.672;23.230;2023-03-04T11:17:13;93172.66;;;5.83;97.74
10988;BME280;5547;42.672;23.230;2023-03-04T11:20:35;93151.16;;;5.63;96.75
10988;BME280;5547;42.672;23.230;2023-03-04T11:23:52;93170.75;;;5.76;98.22
10988;BME280;5547;42.672;23.230;2023-03-04T11:30:15;93155.28;;;6.39;91.81
10988;BME280;5547;42.672;23.230;2023-03-04T11:36:34;93145.88;;;6.17;92.24
10988;BME280;5547;42.672;23.230;2023-03-04T11:39:51;93137.88;;;6.52;91.65
10988;BME280;5547;42.672;23.230;2023-03-04T11:43:02;93145.94;;;7.15;88.96
10988;BME280;5547;42.672;23.230;2023-03-04T11:50:00;93131.94;;;7.26;87.27
10988;BME280;5547;42.672;23.230;2023-03-04T11:53:25;93137.25;;;8.23;81.80
10988;BME280;5547;42.672;23.230;2023-03-04T11:56:51;93126.34;;;8.55;80.65
10988;BME280;5547;42.672;23.230;2023-03-04T12:00:15;93136.47;;;8.98;77.23
10988;BME280;5547;42.672;23.230;2023-03-04T12:03:49;93126.03;;;7.60;82.66
10988;BME280;5547;42.672;23.230;2023-03-04T12:10:29;93110.16;;;7.00;89.26
10988;BME280;5547;42.672;23.230;2023-03-04T12:13:58;93096.19;;;6.96;87.95
10988;BME280;5547;42.672;23.230;2023-03-04T12:23:47;93111.53;;;8.20;82.29
10988;BME280;5547;42.672;23.230;2023-03-04T12:41:05;93085.22;;;6.98;86.00
10988;BME280;5547;42.672;23.230;2023-03-04T12:44:16;93076.94;;;6.96;88.43
10988;BME280;5547;42.672;23.230;2023-03-04T12:48:04;93081.97;;;7.35;86.92
10988;BME280;5547;42.672;23.230;2023-03-04T12:54:22;93026.59;;;7.06;86.71
10988;BME280;5547;42.672;23.230;2023-03-04T12:57:26;93049.38;;;7.45;83.32
10988;BME280;5547;42.672;23.230;2023-03-04T13:07:21;93047.59;;;6.68;91.86
10988;BME280;5547;42.672;23.230;2023-03-04T13:10:24;93044.69;;;6.41;91.98
10988;BME280;5547;42.672;23.230;2023-03-04T13:16:38;93041.59;;;6.64;89.95
10988;BME280;5547;42.672;23.230;2023-03-04T13:22:57;93043.53;;;7.20;86.35
10988;BME280;5547;42.672;23.230;2023-03-04T13:32:34;93028.94;;;6.16;93.15
10988;BME280;5547;42.672;23.230;2023-03-04T13:38:57;93027.44;;;6.15;92.11
10988;BME280;5547;42.672;23.230;2023-03-04T13:41:58;93001.78;;;6.12;93.76
10988;BME280;5547;42.672;23.230;2023-03-04T13:44:59;93022.22;;;6.01;91.97
10988;BME280;5547;42.672;23.230;2023-03-04T13:48:05;93022.56;;;6.03;95.60
10988;BME280;5547;42.672;23.230;2023-03-04T13:51:35;92999.59;;;5.78;93.95
10988;BME280;5547;42.672;23.230;2023-03-04T13:54:36;93018.44;;;5.98;95.90
10988;BME280;5547;42.672;23.230;2023-03-04T13:57:36;93013.16;;;5.87;96.32
10988;BME280;5547;42.672;23.230;2023-03-04T14:00:46;92996.22;;;5.74;96.99
10988;BME280;5547;42.672;23.230;2023-03-04T14:03:47;93002.63;;;5.66;99.85
10988;BME280;5547;42.672;23.230;2023-03-04T14:06:49;92986.09;;;5.44;98.99
10988;BME280;5547;42.672;23.230;2023-03-04T14:13:14;92840.81;;;4.63;100.00
10988;BME280;5547;42.672;23.230;2023-03-04T14:16:22;92998.13;;;5.56;99.47
10988;BME280;5547;42.672;23.230;2023-03-04T14:19:30;92998.81;;;5.92;97.28
10988;BME280;5547;42.672;23.230;2023-03-04T14:22:37;92978.06;;;5.90;98.89
10988;BME280;5547;42.672;23.230;2023-03-04T14:25:38;92987.53;;;5.77;98.65
10988;BME280;5547;42.672;23.230;2023-03-04T14:28:47;92991.69;;;5.78;98.49
10988;BME280;5547;42.672;23.230;2023-03-04T14:31:48;92971.75;;;5.63;98.61
10988;BME280;5547;42.672;23.230;2023-03-04T14:34:49;92930.25;;;5.71;95.84
10988;BME280;5547;42.672;23.230;2023-03-04T14:41:14;92930.94;;;5.89;98.08
10988;BME280;5547;42.672;23.230;2023-03-04T14:47:27;92980.72;;;6.01;97.46
10988;BME280;5547;42.672;23.230;2023-03-04T14:50:31;92965.28;;;5.96;96.82
10988;BME280;5547;42.672;23.230;2023-03-04T14:53:32;92972.44;;;5.99;96.89
10988;BME280;5547;42.672;23.230;2023-03-04T14:56:34;92976.56;;;5.93;97.96
10988;BME280;5547;42.672;23.230;2023-03-04T14:59:35;92966.31;;;6.20;95.61
10988;BME280;5547;42.672;23.230;2023-03-04T15:02:37;92964.84;;;6.05;95.30
10988;BME280;5547;42.672;23.230;2023-03-04T15:05:38;92964.44;;;6.17;96.83
10988;BME280;5547;42.672;23.230;2023-03-04T15:08:40;92941.44;;;6.14;96.96
10988;BME280;5547;42.672;23.230;2023-03-04T15:11:47;92959.09;;;6.28;97.13
10988;BME280;5547;42.672;23.230;2023-03-04T15:14:51;92954.94;;;6.30;94.80
10988;BME280;5547;42.672;23.230;2023-03-04T15:21:39;92947.00;;;6.30;93.58
10988;BME280;5547;42.672;23.230;2023-03-04T15:24:40;92944.47;;;6.13;94.92
10988;BME280;5547;42.672;23.230;2023-03-04T15:27:41;92913.28;;;5.82;95.44
10988;BME280;5547;42.672;23.230;2023-03-04T15:30:43;92915.53;;;5.80;96.60
10988;BME280;5547;42.672;23.230;2023-03-04T15:33:43;92908.81;;;5.54;99.63
10988;BME280;5547;42.672;23.230;2023-03-04T15:36:46;92931.03;;;5.67;100.00
10988;BME280;5547;42.672;23.230;2023-03-04T15:39:48;92914.88;;;5.47;100.00
10988;BME280;5547;42.672;23.230;2023-03-04T15:42:49;92931.09;;;5.46;100.00
10988;BME280;5547;42.672;23.230;2023-03-04T15:45:50;92926.22;;;5.23;100.00
10988;BME280;5547;42.672;23.230;2023-03-04T15:48:51;92912.31;;;5.04;100.00
10988;BME280;5547;42.672;23.230;2023-03-04T15:51:52;92909.31;;;4.95;100.00
10988;BME280;5547;42.672;23.230;2023-03-04T15:54:52;92881.47;;;4.73;100.00
10988;BME280;5547;42.672;23.230;2023-03-04T15:57:54;92902.53;;;4.87;100.00
10988;BME280;5547;42.672;23.230;2023-03-04T16:00:55;92892.75;;;4.73;100.00
10988;BME280;5547;42.672;23.230;2023-03-04T16:03:56;92904.81;;;4.74;100.00
10988;BME280;5547;42.672;23.230;2023-03-04T16:06:56;92863.00;;;4.48;100.00
10988;BME280;5547;42.672;23.230;2023-03-04T16:10:04;92916.84;;;4.75;100.00
10988;BME280;5547;42.672;23.230;2023-03-04T16:13:12;92897.63;;;4.46;100.00
10988;BME280;5547;42.672;23.230;2023-03-04T16:16:13;92910.44;;;4.51;100.00
10988;BME280;5547;42.672;23.230;2023-03-04T16:19:14;92905.16;;;4.37;100.00
10988;BME280;5547;42.672;23.230;2023-03-04T16:22:17;92922.84;;;4.47;100.00
10988;BME280;5547;42.672;23.230;2023-03-04T16:25:19;92918.31;;;4.48;100.00
10988;BME280;5547;42.672;23.230;2023-03-04T16:28:20;92921.34;;;4.46;100.00
10988;BME280;5547;42.672;23.230;2023-03-04T16:31:21;92929.59;;;4.41;100.00
10988;BME280;5547;42.672;23.230;2023-03-04T16:34:21;92924.31;;;4.30;100.00
10988;BME280;5547;42.672;23.230;2023-03-04T16:37:22;92914.88;;;4.11;100.00
10988;BME280;5547;42.672;23.230;2023-03-04T16:40:28;92919.00;;;4.05;100.00
10988;BME280;5547;42.672;23.230;2023-03-04T16:43:29;92911.09;;;4.05;100.00
10988;BME280;5547;42.672;23.230;2023-03-04T16:46:29;92925.03;;;4.13;100.00
10988;BME280;5547;42.672;23.230;2023-03-04T16:49:30;92890.00;;;3.84;100.00
10988;BME280;5547;42.672;23.230;2023-03-04T16:52:31;92934.81;;;4.16;100.00
10988;BME280;5547;42.672;23.230;2023-03-04T16:55:32;92895.72;;;4.14;100.00
10988;BME280;5547;42.672;23.230;2023-03-04T16:58:33;92938.59;;;4.29;100.00
10988;BME280;5547;42.672;23.230;2023-03-04T17:01:33;92934.44;;;4.17;100.00
10988;BME280;5547;42.672;23.230;2023-03-04T17:04:35;92933.69;;;4.20;100.00
10988;BME280;5547;42.672;23.230;2023-03-04T17:07:36;92934.44;;;4.17;100.00
10988;BME280;5547;42.672;23.230;2023-03-04T17:10:36;92903.16;;;3.94;100.00
10988;BME280;5547;42.672;23.230;2023-03-04T17:13:36;92935.19;;;4.14;100.00
10988;BME280;5547;42.672;23.230;2023-03-04T17:16:37;92866.28;;;3.76;100.00
10988;BME280;5547;42.672;23.230;2023-03-04T17:19:37;92933.31;;;4.15;100.00
10988;BME280;5547;42.672;23.230;2023-03-04T17:22:38;92930.69;;;4.18;100.00
10988;BME280;5547;42.672;23.230;2023-03-04T17:25:38;92920.50;;;4.06;100.00
10988;BME280;5547;42.672;23.230;2023-03-04T17:28:39;92915.63;;;4.05;100.00
10988;BME280;5547;42.672;23.230;2023-03-04T17:31:39;92820.69;;;3.36;100.00
10988;BME280;5547;42.672;23.230;2023-03-04T17:34:39;92929.91;;;4.18;100.00
10988;BME280;5547;42.672;23.230;2023-03-04T17:37:40;92941.63;;;4.35;100.00
10988;BME280;5547;42.672;23.230;2023-03-04T17:40:41;92937.84;;;4.21;100.00